sensor_id;sensor_type;location;lat;lon;timestamp;pressure;altitude;pressure_sealevel;temperature
78225;BMP280;67498;53.650;10.090;2023-12-28T00:01:08;100452.34;;;7.02
78225;BMP280;67498;53.650;10.090;2023-12-28T00:03:33;100459.75;;;7.07
78225;BMP280;67498;53.650;10.090;2023-12-28T00:05:58;100444.56;;;7.06
78225;BMP280;67498;53.650;10.090;2023-12-28T00:08:24;100448.25;;;7.16
78225;BMP280;67498;53.650;10.090;2023-12-28T00:10:49;100454.16;;;7.20
78225;BMP280;67498;53.650;10.090;2023-12-28T00:13:14;100449.31;;;7.29
78225;BMP280;67498;53.650;10.090;2023-12-28T00:15:40;100445.63;;;7.37
78225;BMP280;67498;53.650;10.090;2023-12-28T00:18:05;100442.22;;;7.47
78225;BMP280;67498;53.650;10.090;2023-12-28T00:20:31;100455.56;;;7.57
78225;BMP280;67498;53.650;10.090;2023-12-28T00:22:56;100453.72;;;7.54
78225;BMP280;67498;53.650;10.090;2023-12-28T00:25:23;100478.19;;;7.60
78225;BMP280;67498;53.650;10.090;2023-12-28T00:27:48;100461.06;;;7.62
78225;BMP280;67498;53.650;10.090;2023-12-28T00:30:14;100467.38;;;7.65
78225;BMP280;67498;53.650;10.090;2023-12-28T00:32:39;100469.25;;;7.68
78225;BMP280;67498;53.650;10.090;2023-12-28T00:35:08;100468.88;;;7.69
78225;BMP280;67498;53.650;10.090;2023-12-28T00:37:34;100461.47;;;7.68
78225;BMP280;67498;53.650;10.090;2023-12-28T00:39:59;100459.19;;;7.73
78225;BMP280;67498;53.650;10.090;2023-12-28T00:42:24;100474.06;;;7.69
78225;BMP280;67498;53.650;10.090;2023-12-28T00:44:50;100482.22;;;7.71
78225;BMP280;67498;53.650;10.090;2023-12-28T00:47:15;100480.75;;;7.70
78225;BMP280;67498;53.650;10.090;2023-12-28T00:49:40;100472.19;;;7.63
78225;BMP280;67498;53.650;10.090;2023-12-28T00:52:06;100459.63;;;7.58
78225;BMP280;67498;53.650;10.090;2023-12-28T00:54:31;100475.97;;;7.55
78225;BMP280;67498;53.650;10.090;2023-12-28T00:56:56;100470.38;;;7.60
78225;BMP280;67498;53.650;10.090;2023-12-28T00:59:22;100487.84;;;7.59
78225;BMP280;67498;53.650;10.090;2023-12-28T01:01:47;100478.19;;;7.60
78225;BMP280;67498;53.650;10.090;2023-12-28T01:04:12;100468.91;;;7.59
78225;BMP280;67498;53.650;10.090;2023-12-28T01:06:37;100462.59;;;7.52
78225;BMP280;67498;53.650;10.090;2023-12-28T01:09:03;100477.06;;;7.57
78225;BMP280;67498;53.650;10.090;2023-12-28T01:11:28;100465.19;;;7.52
78225;BMP280;67498;53.650;10.090;2023-12-28T01:13:54;100481.16;;;7.55
78225;BMP280;67498;53.650;10.090;2023-12-28T01:16:19;100474.84;;;7.56
78225;BMP280;67498;53.650;10.090;2023-12-28T01:18:44;100484.13;;;7.57
78225;BMP280;67498;53.650;10.090;2023-12-28T01:21:10;100476.31;;;7.60
78225;BMP280;67498;53.650;10.090;2023-12-28T01:23:35;100480.75;;;7.63
78225;BMP280;67498;53.650;10.090;2023-12-28T01:26:00;100488.91;;;7.65
78225;BMP280;67498;53.650;10.090;2023-12-28T01:28:26;100481.13;;;7.62
78225;BMP280;67498;53.650;10.090;2023-12-28T01:30:52;100473.69;;;7.64
78225;BMP280;67498;53.650;10.090;2023-12-28T01:33:17;100496.34;;;7.70
78225;BMP280;67498;53.650;10.090;2023-12-28T01:35:42;100486.31;;;7.69
78225;BMP280;67498;53.650;10.090;2023-12-28T01:38:08;100486.28;;;7.72
78225;BMP280;67498;53.650;10.090;2023-12-28T01:40:33;100488.50;;;7.78
78225;BMP280;67498;53.650;10.090;2023-12-28T01:42:59;100480.34;;;7.75
78225;BMP280;67498;53.650;10.090;2023-12-28T01:45:24;100481.44;;;7.82
78225;BMP280;67498;53.650;10.090;2023-12-28T01:47:50;100492.22;;;7.80
78225;BMP280;67498;53.650;10.090;2023-12-28T01:50:18;100513.69;;;7.88
78225;BMP280;67498;53.650;10.090;2023-12-28T01:52:44;100499.94;;;7.91
78225;BMP280;67498;53.650;10.090;2023-12-28T01:55:10;100515.91;;;7.93
78225;BMP280;67498;53.650;10.090;2023-12-28T01:57:36;100521.13;;;7.93
78225;BMP280;67498;53.650;10.090;2023-12-28T02:00:01;100516.69;;;7.90
78225;BMP280;67498;53.650;10.090;2023-12-28T02:02:30;100500.69;;;7.95
78225;BMP280;67498;53.650;10.090;2023-12-28T02:04:55;100509.19;;;7.95
78225;BMP280;67498;53.650;10.090;2023-12-28T02:07:21;100506.97;;;7.97
78225;BMP280;67498;53.650;10.090;2023-12-28T02:09:46;100503.63;;;8.01
78225;BMP280;67498;53.650;10.090;2023-12-28T02:12:12;100514.00;;;8.01
78225;BMP280;67498;53.650;10.090;2023-12-28T02:14:37;100510.31;;;7.98
78225;BMP280;67498;53.650;10.090;2023-12-28T02:17:06;100510.63;;;8.07
78225;BMP280;67498;53.650;10.090;2023-12-28T02:19:47;100512.09;;;8.08
78225;BMP280;67498;53.650;10.090;2023-12-28T02:22:14;100528.09;;;8.07
78225;BMP280;67498;53.650;10.090;2023-12-28T02:27:41;100529.25;;;8.02
78225;BMP280;67498;53.650;10.090;2023-12-28T02:30:08;100510.28;;;8.09
78225;BMP280;67498;53.650;10.090;2023-12-28T02:32:42;100528.06;;;8.10
78225;BMP280;67498;53.650;10.090;2023-12-28T02:35:29;100531.41;;;8.14
78225;BMP280;67498;53.650;10.090;2023-12-28T02:38:01;100519.91;;;8.12
78225;BMP280;67498;53.650;10.090;2023-12-28T02:40:28;100510.25;;;8.12
78225;BMP280;67498;53.650;10.090;2023-12-28T02:42:55;100509.88;;;8.14
78225;BMP280;67498;53.650;10.090;2023-12-28T02:45:21;100516.53;;;8.18
78225;BMP280;67498;53.650;10.090;2023-12-28T02:47:46;100529.13;;;8.20
78225;BMP280;67498;53.650;10.090;2023-12-28T02:50:11;100515.75;;;8.21
78225;BMP280;67498;53.650;10.090;2023-12-28T02:52:36;100521.34;;;8.24
78225;BMP280;67498;53.650;10.090;2023-12-28T02:55:02;100519.84;;;8.23
78225;BMP280;67498;53.650;10.090;2023-12-28T02:57:27;100526.16;;;8.21
78225;BMP280;67498;53.650;10.090;2023-12-28T02:59:53;100523.56;;;8.21
78225;BMP280;67498;53.650;10.090;2023-12-28T03:02:18;100517.25;;;8.19
78225;BMP280;67498;53.650;10.090;2023-12-28T03:04:43;100523.19;;;8.23
78225;BMP280;67498;53.650;10.090;2023-12-28T03:07:09;100527.66;;;8.23
78225;BMP280;67498;53.650;10.090;2023-12-28T03:09:34;100527.66;;;8.26
78225;BMP280;67498;53.650;10.090;2023-12-28T03:12:00;100527.28;;;8.24
78225;BMP280;67498;53.650;10.090;2023-12-28T03:14:25;100510.94;;;8.20
78225;BMP280;67498;53.650;10.090;2023-12-28T03:16:51;100515.81;;;8.14
78225;BMP280;67498;53.650;10.090;2023-12-28T03:19:16;100527.69;;;8.15
78225;BMP280;67498;53.650;10.090;2023-12-28T03:21:42;100514.72;;;8.08
78225;BMP280;67498;53.650;10.090;2023-12-28T03:24:08;100529.94;;;8.13
78225;BMP280;67498;53.650;10.090;2023-12-28T03:26:38;100515.81;;;8.11
78225;BMP280;67498;53.650;10.090;2023-12-28T03:29:05;100527.31;;;8.17
78225;BMP280;67498;53.650;10.090;2023-12-28T03:31:30;100533.22;;;8.21
78225;BMP280;67498;53.650;10.090;2023-12-28T03:33:56;100527.66;;;8.23
78225;BMP280;67498;53.650;10.090;2023-12-28T03:36:21;100524.69;;;8.24
78225;BMP280;67498;53.650;10.090;2023-12-28T03:38:48;100521.34;;;8.20
78225;BMP280;67498;53.650;10.090;2023-12-28T03:41:20;100523.19;;;8.23
78225;BMP280;67498;53.650;10.090;2023-12-28T03:43:48;100530.63;;;8.17
78225;BMP280;67498;53.650;10.090;2023-12-28T03:46:14;100531.75;;;8.24
78225;BMP280;67498;53.650;10.090;2023-12-28T03:48:39;100523.19;;;8.23
78225;BMP280;67498;53.650;10.090;2023-12-28T03:51:05;100513.94;;;8.15
78225;BMP280;67498;53.650;10.090;2023-12-28T03:53:30;100529.88;;;8.24
78225;BMP280;67498;53.650;10.090;2023-12-28T03:55:59;100530.25;;;8.26
78225;BMP280;67498;53.650;10.090;2023-12-28T03:58:25;100526.16;;;8.25
78225;BMP280;67498;53.650;10.090;2023-12-28T04:00:50;100535.41;;;8.30
78225;BMP280;67498;53.650;10.090;2023-12-28T04:03:15;100540.59;;;8.30
78225;BMP280;67498;53.650;10.090;2023-12-28T04:05:43;100531.00;;;8.23
78225;BMP280;67498;53.650;10.090;2023-12-28T04:08:08;100533.94;;;8.29
78225;BMP280;67498;53.650;10.090;2023-12-28T04:10:33;100531.75;;;8.24
78225;BMP280;67498;53.650;10.090;2023-12-28T04:12:59;100511.31;;;8.22
78225;BMP280;67498;53.650;10.090;2023-12-28T04:15:28;100527.66;;;8.26
78225;BMP280;67498;53.650;10.090;2023-12-28T04:17:53;100526.53;;;8.20
78225;BMP280;67498;53.650;10.090;2023-12-28T04:20:18;100536.53;;;8.25
78225;BMP280;67498;53.650;10.090;2023-12-28T04:22:44;100527.31;;;8.17
78225;BMP280;67498;53.650;10.090;2023-12-28T04:25:10;100523.56;;;8.21
78225;BMP280;67498;53.650;10.090;2023-12-28T04:27:36;100528.38;;;8.27
78225;BMP280;67498;53.650;10.090;2023-12-28T04:30:02;100537.66;;;8.28
78225;BMP280;67498;53.650;10.090;2023-12-28T04:32:27;100523.91;;;8.27
78225;BMP280;67498;53.650;10.090;2023-12-28T04:34:53;100522.38;;;8.30
78225;BMP280;67498;53.650;10.090;2023-12-28T04:37:19;100517.59;;;8.25
78225;BMP280;67498;53.650;10.090;2023-12-28T04:39:45;100523.53;;;8.29
78225;BMP280;67498;53.650;10.090;2023-12-28T04:42:11;100516.50;;;8.26
78225;BMP280;67498;53.650;10.090;2023-12-28T04:44:39;100516.09;;;8.31
78225;BMP280;67498;53.650;10.090;2023-12-28T04:47:05;100512.38;;;8.28
78225;BMP280;67498;53.650;10.090;2023-12-28T04:49:30;100513.47;;;8.34
78225;BMP280;67498;53.650;10.090;2023-12-28T04:51:56;100516.06;;;8.34
78225;BMP280;67498;53.650;10.090;2023-12-28T04:54:22;100510.13;;;8.37
78225;BMP280;67498;53.650;10.090;2023-12-28T04:56:47;100523.88;;;8.34
78225;BMP280;67498;53.650;10.090;2023-12-28T04:59:13;100528.34;;;8.34
78225;BMP280;67498;53.650;10.090;2023-12-28T05:01:44;100521.59;;;8.40
78225;BMP280;67498;53.650;10.090;2023-12-28T05:04:10;100519.44;;;8.35
78225;BMP280;67498;53.650;10.090;2023-12-28T05:06:36;100549.47;;;8.43
78225;BMP280;67498;53.650;10.090;2023-12-28T05:09:02;100545.72;;;8.44
78225;BMP280;67498;53.650;10.090;2023-12-28T05:11:27;100532.75;;;8.40
78225;BMP280;67498;53.650;10.090;2023-12-28T05:13:53;100536.44;;;8.43
78225;BMP280;67498;53.650;10.090;2023-12-28T05:16:19;100529.06;;;8.38
78225;BMP280;67498;53.650;10.090;2023-12-28T05:18:44;100536.44;;;8.43
78225;BMP280;67498;53.650;10.090;2023-12-28T05:21:09;100540.56;;;8.40
78225;BMP280;67498;53.650;10.090;2023-12-28T05:23:34;100535.00;;;8.38
78225;BMP280;67498;53.650;10.090;2023-12-28T05:26:00;100517.94;;;8.37
78225;BMP280;67498;53.650;10.090;2023-12-28T05:28:25;100527.19;;;8.38
78225;BMP280;67498;53.650;10.090;2023-12-28T05:30:51;100528.66;;;8.43
78225;BMP280;67498;53.650;10.090;2023-12-28T05:33:16;100533.84;;;8.43
78225;BMP280;67498;53.650;10.090;2023-12-28T05:35:41;100546.84;;;8.43
78225;BMP280;67498;53.650;10.090;2023-12-28T05:38:07;100554.66;;;8.43
78225;BMP280;67498;53.650;10.090;2023-12-28T05:40:32;100560.22;;;8.41
78225;BMP280;67498;53.650;10.090;2023-12-28T05:42:57;100547.22;;;8.45
78225;BMP280;67498;53.650;10.090;2023-12-28T05:45:22;100539.78;;;8.47
78225;BMP280;67498;53.650;10.090;2023-12-28T05:47:48;100542.34;;;8.51
78225;BMP280;67498;53.650;10.090;2023-12-28T05:50:13;100538.25;;;8.50
78225;BMP280;67498;53.650;10.090;2023-12-28T05:52:38;100543.44;;;8.57
78225;BMP280;67498;53.650;10.090;2023-12-28T05:55:04;100526.31;;;8.59
78225;BMP280;67498;53.650;10.090;2023-12-28T05:57:30;100532.25;;;8.63
78225;BMP280;67498;53.650;10.090;2023-12-28T05:59:57;100535.56;;;8.64
78225;BMP280;67498;53.650;10.090;2023-12-28T06:02:22;100532.59;;;8.65
78225;BMP280;67498;53.650;10.090;2023-12-28T06:04:47;100533.34;;;8.62
78225;BMP280;67498;53.650;10.090;2023-12-28T06:07:13;100526.66;;;8.61
78225;BMP280;67498;53.650;10.090;2023-12-28T06:09:38;100548.19;;;8.65
78225;BMP280;67498;53.650;10.090;2023-12-28T06:12:07;100537.78;;;8.65
78225;BMP280;67498;53.650;10.090;2023-12-28T06:14:32;100537.00;;;8.76
78225;BMP280;67498;53.650;10.090;2023-12-28T06:16:58;100523.97;;;8.76
78225;BMP280;67498;53.650;10.090;2023-12-28T06:19:23;100530.22;;;8.82
78225;BMP280;67498;53.650;10.090;2023-12-28T06:21:49;100521.28;;;8.86
78225;BMP280;67498;53.650;10.090;2023-12-28T06:24:14;100522.72;;;8.91
78225;BMP280;67498;53.650;10.090;2023-12-28T06:26:41;100525.66;;;8.97
78225;BMP280;67498;53.650;10.090;2023-12-28T06:29:07;100517.84;;;8.97
78225;BMP280;67498;53.650;10.090;2023-12-28T06:31:32;100525.19;;;9.05
78225;BMP280;67498;53.650;10.090;2023-12-28T06:34:01;100500.31;;;9.04
78225;BMP280;67498;53.650;10.090;2023-12-28T06:36:27;100516.53;;;9.16
78225;BMP280;67498;53.650;10.090;2023-12-28T06:38:52;100507.66;;;9.09
78225;BMP280;67498;53.650;10.090;2023-12-28T06:41:17;100528.38;;;9.24
78225;BMP280;67498;53.650;10.090;2023-12-28T06:43:43;100526.88;;;9.23
78225;BMP280;67498;53.650;10.090;2023-12-28T06:46:08;100511.25;;;9.26
78225;BMP280;67498;53.650;10.090;2023-12-28T06:48:33;100530.13;;;9.34
78225;BMP280;67498;53.650;10.090;2023-12-28T06:50:59;100535.25;;;9.41
78225;BMP280;67498;53.650;10.090;2023-12-28T06:53:25;100532.25;;;9.46
78225;BMP280;67498;53.650;10.090;2023-12-28T06:55:50;100509.94;;;9.45
78225;BMP280;67498;53.650;10.090;2023-12-28T06:58:15;100509.94;;;9.45
78225;BMP280;67498;53.650;10.090;2023-12-28T07:00:40;100502.13;;;9.45
78225;BMP280;67498;53.650;10.090;2023-12-28T07:03:06;100491.25;;;9.47
78225;BMP280;67498;53.650;10.090;2023-12-28T07:05:32;100503.19;;;9.48
78225;BMP280;67498;53.650;10.090;2023-12-28T07:07:58;100497.56;;;9.53
78225;BMP280;67498;53.650;10.090;2023-12-28T07:10:23;100504.19;;;9.57
78225;BMP280;67498;53.650;10.090;2023-12-28T07:12:48;100483.78;;;9.52
78225;BMP280;67498;53.650;10.090;2023-12-28T07:15:14;100501.88;;;9.63
78225;BMP280;67498;53.650;10.090;2023-12-28T07:17:40;100494.06;;;9.63
78225;BMP280;67498;53.650;10.090;2023-12-28T07:20:05;100482.59;;;9.57
78225;BMP280;67498;53.650;10.090;2023-12-28T07:22:31;100505.28;;;9.60
78225;BMP280;67498;53.650;10.090;2023-12-28T07:24:56;100509.06;;;9.55
78225;BMP280;67498;53.650;10.090;2023-12-28T07:27:21;100498.59;;;9.59
78225;BMP280;67498;53.650;10.090;2023-12-28T07:29:47;100517.25;;;9.54
78225;BMP280;67498;53.650;10.090;2023-12-28T07:32:12;100498.97;;;9.57
78225;BMP280;67498;53.650;10.090;2023-12-28T07:34:39;100521.28;;;9.58
78225;BMP280;67498;53.650;10.090;2023-12-28T07:37:04;100516.84;;;9.59
78225;BMP280;67498;53.650;10.090;2023-12-28T07:39:30;100521.63;;;9.64
78225;BMP280;67498;53.650;10.090;2023-12-28T07:41:55;100527.50;;;9.68
78225;BMP280;67498;53.650;10.090;2023-12-28T07:44:21;100518.56;;;9.69
78225;BMP280;67498;53.650;10.090;2023-12-28T07:46:46;100527.13;;;9.70
78225;BMP280;67498;53.650;10.090;2023-12-28T07:49:11;100493.25;;;9.66
78225;BMP280;67498;53.650;10.090;2023-12-28T07:51:37;100506.63;;;9.72
78225;BMP280;67498;53.650;10.090;2023-12-28T07:54:02;100501.88;;;9.63
78225;BMP280;67498;53.650;10.090;2023-12-28T07:56:27;100492.25;;;9.60
78225;BMP280;67498;53.650;10.090;2023-12-28T07:58:53;100510.03;;;9.69
78225;BMP280;67498;53.650;10.090;2023-12-28T08:01:18;100494.81;;;9.64
78225;BMP280;67498;53.650;10.090;2023-12-28T08:03:44;100499.97;;;9.67
78225;BMP280;67498;53.650;10.090;2023-12-28T08:06:09;100496.31;;;9.61
78225;BMP280;67498;53.650;10.090;2023-12-28T08:08:37;100500.34;;;9.66
78225;BMP280;67498;53.650;10.090;2023-12-28T08:11:03;100521.56;;;9.68
78225;BMP280;67498;53.650;10.090;2023-12-28T08:13:28;100515.94;;;9.73
78225;BMP280;67498;53.650;10.090;2023-12-28T08:15:54;100515.16;;;9.76
78225;BMP280;67498;53.650;10.090;2023-12-28T08:18:19;100493.88;;;9.81
78225;BMP280;67498;53.650;10.090;2023-12-28T08:20:44;100497.94;;;9.82
78225;BMP280;67498;53.650;10.090;2023-12-28T08:23:10;100493.72;;;9.92
78225;BMP280;67498;53.650;10.090;2023-12-28T08:25:35;100499.63;;;9.96
78225;BMP280;67498;53.650;10.090;2023-12-28T08:28:00;100491.34;;;10.01
78225;BMP280;67498;53.650;10.090;2023-12-28T08:30:26;100492.06;;;10.01
78225;BMP280;67498;53.650;10.090;2023-12-28T08:32:52;100503.63;;;10.00
78225;BMP280;67498;53.650;10.090;2023-12-28T08:35:18;100497.94;;;10.09
78225;BMP280;67498;53.650;10.090;2023-12-28T08:37:43;100504.63;;;10.10
78225;BMP280;67498;53.650;10.090;2023-12-28T08:40:09;100498.91;;;10.19
78225;BMP280;67498;53.650;10.090;2023-12-28T08:42:34;100507.44;;;10.23
78225;BMP280;67498;53.650;10.090;2023-12-28T08:45:00;100504.09;;;10.22
78225;BMP280;67498;53.650;10.090;2023-12-28T08:47:25;100512.63;;;10.26
78225;BMP280;67498;53.650;10.090;2023-12-28T08:49:50;100503.25;;;10.29
78225;BMP280;67498;53.650;10.090;2023-12-28T08:52:15;100511.06;;;10.29
78225;BMP280;67498;53.650;10.090;2023-12-28T08:54:41;100516.13;;;10.40
78225;BMP280;67498;53.650;10.090;2023-12-28T08:57:06;100505.97;;;10.45
78225;BMP280;67498;53.650;10.090;2023-12-28T08:59:36;100499.22;;;10.48
78225;BMP280;67498;53.650;10.090;2023-12-28T09:02:01;100506.34;;;10.44
78225;BMP280;67498;53.650;10.090;2023-12-28T09:04:26;100513.41;;;10.47
78225;BMP280;67498;53.650;10.090;2023-12-28T09:06:52;100507.41;;;10.50
78225;BMP280;67498;53.650;10.090;2023-12-28T09:09:18;100505.91;;;10.49
78225;BMP280;67498;53.650;10.090;2023-12-28T09:11:43;100507.72;;;10.52
78225;BMP280;67498;53.650;10.090;2023-12-28T09:14:08;100524.03;;;10.60
78225;BMP280;67498;53.650;10.090;2023-12-28T09:16:34;100526.56;;;10.63
78225;BMP280;67498;53.650;10.090;2023-12-28T09:19:00;100514.25;;;10.64
78225;BMP280;67498;53.650;10.090;2023-12-28T09:21:26;100512.66;;;10.70
78225;BMP280;67498;53.650;10.090;2023-12-28T09:23:51;100489.16;;;10.70
78225;BMP280;67498;53.650;10.090;2023-12-28T09:26:17;100522.66;;;10.75
78225;BMP280;67498;53.650;10.090;2023-12-28T09:28:43;100521.56;;;10.72
78225;BMP280;67498;53.650;10.090;2023-12-28T09:31:09;100534.91;;;10.78
78225;BMP280;67498;53.650;10.090;2023-12-28T09:33:34;100523.34;;;10.79
78225;BMP280;67498;53.650;10.090;2023-12-28T09:36:03;100520.66;;;10.83
78225;BMP280;67498;53.650;10.090;2023-12-28T09:38:28;100528.44;;;10.86
78225;BMP280;67498;53.650;10.090;2023-12-28T09:40:54;100519.19;;;10.82
78225;BMP280;67498;53.650;10.090;2023-12-28T09:43:30;100518.00;;;10.86
78225;BMP280;67498;53.650;10.090;2023-12-28T09:46:06;100517.25;;;10.86
78225;BMP280;67498;53.650;10.090;2023-12-28T09:48:33;100518.72;;;10.87
78225;BMP280;67498;53.650;10.090;2023-12-28T09:50:58;100507.47;;;10.90
78225;BMP280;67498;53.650;10.090;2023-12-28T09:53:24;100525.75;;;10.90
78225;BMP280;67498;53.650;10.090;2023-12-28T09:55:50;100519.44;;;10.87
78225;BMP280;67498;53.650;10.090;2023-12-28T09:58:20;100519.75;;;10.93
78225;BMP280;67498;53.650;10.090;2023-12-28T10:00:47;100508.50;;;10.96
78225;BMP280;67498;53.650;10.090;2023-12-28T10:03:13;100515.59;;;10.95
78225;BMP280;67498;53.650;10.090;2023-12-28T10:05:46;100504.47;;;10.91
78225;BMP280;67498;53.650;10.090;2023-12-28T10:08:12;100515.19;;;10.97
78225;BMP280;67498;53.650;10.090;2023-12-28T10:10:42;100506.97;;;10.98
78225;BMP280;67498;53.650;10.090;2023-12-28T10:13:08;100489.47;;;10.95
78225;BMP280;67498;53.650;10.090;2023-12-28T10:15:35;100504.69;;;11.00
78225;BMP280;67498;53.650;10.090;2023-12-28T10:18:00;100491.69;;;10.97
78225;BMP280;67498;53.650;10.090;2023-12-28T10:20:27;100515.78;;;11.05
78225;BMP280;67498;53.650;10.090;2023-12-28T10:22:52;100515.75;;;11.08
78225;BMP280;67498;53.650;10.090;2023-12-28T10:25:18;100493.38;;;11.07
78225;BMP280;67498;53.650;10.090;2023-12-28T10:27:43;100496.91;;;11.17
78225;BMP280;67498;53.650;10.090;2023-12-28T10:30:09;100495.75;;;11.18
78225;BMP280;67498;53.650;10.090;2023-12-28T10:32:36;100479.75;;;11.16
78225;BMP280;67498;53.650;10.090;2023-12-28T10:35:04;100501.34;;;11.20
78225;BMP280;67498;53.650;10.090;2023-12-28T10:37:31;100488.28;;;11.20
78225;BMP280;67498;53.650;10.090;2023-12-28T10:39:59;100493.16;;;11.18
78225;BMP280;67498;53.650;10.090;2023-12-28T10:42:32;100501.69;;;11.22
78225;BMP280;67498;53.650;10.090;2023-12-28T10:45:10;100518.47;;;11.21
78225;BMP280;67498;53.650;10.090;2023-12-28T10:47:44;100522.59;;;11.22
78225;BMP280;67498;53.650;10.090;2023-12-28T10:50:13;100517.00;;;11.20
78225;BMP280;67498;53.650;10.090;2023-12-28T10:52:39;100519.63;;;11.20
78225;BMP280;67498;53.650;10.090;2023-12-28T10:55:17;100525.94;;;11.22
78225;BMP280;67498;53.650;10.090;2023-12-28T10:58:06;100518.13;;;11.19
78225;BMP280;67498;53.650;10.090;2023-12-28T11:00:36;100533.69;;;11.26
78225;BMP280;67498;53.650;10.090;2023-12-28T11:03:09;100502.28;;;11.30
78225;BMP280;67498;53.650;10.090;2023-12-28T11:05:36;100515.25;;;11.33
78225;BMP280;67498;53.650;10.090;2023-12-28T11:08:03;100510.34;;;11.35
78225;BMP280;67498;53.650;10.090;2023-12-28T11:10:29;100518.16;;;11.39
78225;BMP280;67498;53.650;10.090;2023-12-28T11:12:56;100492.75;;;11.39
78225;BMP280;67498;53.650;10.090;2023-12-28T11:15:23;100517.69;;;11.44
78225;BMP280;67498;53.650;10.090;2023-12-28T11:17:49;100506.13;;;11.41
78225;BMP280;67498;53.650;10.090;2023-12-28T11:20:15;100508.53;;;11.52
78225;BMP280;67498;53.650;10.090;2023-12-28T11:22:41;100502.91;;;11.54
78225;BMP280;67498;53.650;10.090;2023-12-28T11:25:17;100503.38;;;11.48
78225;BMP280;67498;53.650;10.090;2023-12-28T11:27:44;100508.19;;;11.50
78225;BMP280;67498;53.650;10.090;2023-12-28T11:30:10;100516.81;;;11.50
78225;BMP280;67498;53.650;10.090;2023-12-28T11:32:36;100505.72;;;11.43
78225;BMP280;67498;53.650;10.090;2023-12-28T11:35:02;100517.56;;;11.47
78225;BMP280;67498;53.650;10.090;2023-12-28T11:37:32;100522.09;;;11.47
78225;BMP280;67498;53.650;10.090;2023-12-28T11:39:58;100520.63;;;11.46
78225;BMP280;67498;53.650;10.090;2023-12-28T11:42:34;100518.34;;;11.48
78225;BMP280;67498;53.650;10.090;2023-12-28T11:44:59;100510.19;;;11.46
78225;BMP280;67498;53.650;10.090;2023-12-28T11:47:25;100504.66;;;11.40
78225;BMP280;67498;53.650;10.090;2023-12-28T11:49:52;100517.34;;;11.42
78225;BMP280;67498;53.650;10.090;2023-12-28T11:52:38;100505.88;;;11.36
78225;BMP280;67498;53.650;10.090;2023-12-28T11:55:04;100502.94;;;11.34
78225;BMP280;67498;53.650;10.090;2023-12-28T11:57:29;100520.78;;;11.39
78225;BMP280;67498;53.650;10.090;2023-12-28T12:00:02;100514.50;;;11.33
78225;BMP280;67498;53.650;10.090;2023-12-28T12:02:27;100498.44;;;11.34
78225;BMP280;67498;53.650;10.090;2023-12-28T12:04:54;100505.09;;;11.39
78225;BMP280;67498;53.650;10.090;2023-12-28T12:07:20;100507.75;;;11.35
78225;BMP280;67498;53.650;10.090;2023-12-28T12:09:45;100495.03;;;11.37
78225;BMP280;67498;53.650;10.090;2023-12-28T12:12:10;100500.59;;;11.39
78225;BMP280;67498;53.650;10.090;2023-12-28T12:14:36;100492.06;;;11.35
78225;BMP280;67498;53.650;10.090;2023-12-28T12:17:03;100496.81;;;11.40
78225;BMP280;67498;53.650;10.090;2023-12-28T12:19:28;100497.97;;;11.39
78225;BMP280;67498;53.650;10.090;2023-12-28T12:21:55;100484.50;;;11.41
78225;BMP280;67498;53.650;10.090;2023-12-28T12:24:21;100526.59;;;11.46
78225;BMP280;67498;53.650;10.090;2023-12-28T12:26:47;100503.47;;;11.45
78225;BMP280;67498;53.650;10.090;2023-12-28T12:29:13;100501.84;;;11.51
78225;BMP280;67498;53.650;10.090;2023-12-28T12:31:42;100504.47;;;11.51
78225;BMP280;67498;53.650;10.090;2023-12-28T12:34:09;100505.34;;;11.44
78225;BMP280;67498;53.650;10.090;2023-12-28T12:36:35;100504.84;;;11.49
78225;BMP280;67498;53.650;10.090;2023-12-28T12:39:01;100508.28;;;11.46
78225;BMP280;67498;53.650;10.090;2023-12-28T12:41:26;100501.13;;;11.50
78225;BMP280;67498;53.650;10.090;2023-12-28T12:43:52;100499.28;;;11.47
78225;BMP280;67498;53.650;10.090;2023-12-28T12:46:20;100514.09;;;11.54
78225;BMP280;67498;53.650;10.090;2023-12-28T12:48:57;100493.28;;;11.50
78225;BMP280;67498;53.650;10.090;2023-12-28T12:51:24;100490.25;;;11.52
78225;BMP280;67498;53.650;10.090;2023-12-28T12:53:49;100501.69;;;11.58
78225;BMP280;67498;53.650;10.090;2023-12-28T12:56:15;100491.00;;;11.53
78225;BMP280;67498;53.650;10.090;2023-12-28T12:58:43;100500.97;;;11.58
78225;BMP280;67498;53.650;10.090;2023-12-28T13:01:11;100502.19;;;11.53
78225;BMP280;67498;53.650;10.090;2023-12-28T13:03:37;100493.59;;;11.53
78225;BMP280;67498;53.650;10.090;2023-12-28T13:06:03;100491.97;;;11.59
78225;BMP280;67498;53.650;10.090;2023-12-28T13:08:29;100496.97;;;11.53
78225;BMP280;67498;53.650;10.090;2023-12-28T13:10:54;100505.78;;;11.59
78225;BMP280;67498;53.650;10.090;2023-12-28T13:13:21;100510.28;;;11.59
78225;BMP280;67498;53.650;10.090;2023-12-28T13:15:46;100520.72;;;11.59
78225;BMP280;67498;53.650;10.090;2023-12-28T13:18:12;100514.38;;;11.60
78225;BMP280;67498;53.650;10.090;2023-12-28T13:20:37;100501.69;;;11.58
78225;BMP280;67498;53.650;10.090;2023-12-28T13:23:03;100496.53;;;11.55
78225;BMP280;67498;53.650;10.090;2023-12-28T13:25:28;100476.09;;;11.49
78225;BMP280;67498;53.650;10.090;2023-12-28T13:27:54;100490.56;;;11.54
78225;BMP280;67498;53.650;10.090;2023-12-28T13:30:19;100498.75;;;11.56
78225;BMP280;67498;53.650;10.090;2023-12-28T13:32:46;100512.88;;;11.59
78225;BMP280;67498;53.650;10.090;2023-12-28T13:35:11;100503.59;;;11.58
78225;BMP280;67498;53.650;10.090;2023-12-28T13:37:37;100494.19;;;11.60
78225;BMP280;67498;53.650;10.090;2023-12-28T13:40:02;100513.22;;;11.61
78225;BMP280;67498;53.650;10.090;2023-12-28T13:42:28;100506.34;;;11.50
78225;BMP280;67498;53.650;10.090;2023-12-28T13:44:53;100522.28;;;11.56
78225;BMP280;67498;53.650;10.090;2023-12-28T13:47:19;100511.06;;;11.56
78225;BMP280;67498;53.650;10.090;2023-12-28T13:49:44;100513.03;;;11.52